createdAt,value
2018-03-17T09:15:12.161Z,-0.90
2018-03-17T09:17:38.067Z,-1.00
2018-03-17T09:20:04.023Z,-1.00
2018-03-17T09:22:29.978Z,-1.00
2018-03-17T09:24:55.922Z,-0.90
2018-03-17T09:27:22.600Z,-1.00
2018-03-17T09:29:49.133Z,-1.00
2018-03-17T09:32:15.102Z,-1.00
2018-03-17T09:34:41.014Z,-1.00
2018-03-17T09:37:07.431Z,-1.00
2018-03-17T09:39:34.109Z,-1.10
2018-03-17T09:42:00.118Z,-1.10
2018-03-17T09:44:26.036Z,-1.00
2018-03-17T09:46:51.958Z,-0.90
2018-03-17T09:49:17.868Z,-0.80
2018-03-17T09:51:43.793Z,-0.80
2018-03-17T09:54:09.726Z,-0.70
2018-03-17T09:56:35.639Z,-0.80
2018-03-17T09:59:02.306Z,-0.70
2018-03-17T10:01:28.219Z,-0.70
2018-03-17T10:03:54.939Z,-0.60
2018-03-17T10:06:20.877Z,-0.60
2018-03-17T10:08:46.791Z,-0.50
2018-03-17T10:11:12.747Z,-0.30
2018-03-17T10:13:38.689Z,-0.20
2018-03-17T10:16:04.960Z,0.00
2018-03-17T10:18:30.886Z,0.00
2018-03-17T10:20:57.569Z,-0.10
2018-03-17T10:23:23.490Z,-0.10
2018-03-17T10:25:49.412Z,0.00
2018-03-17T10:28:16.107Z,-0.10
2018-03-17T10:30:42.095Z,-0.10
2018-03-17T10:33:08.775Z,0.20
2018-03-17T10:35:34.683Z,0.20
2018-03-17T10:38:01.338Z,0.00
2018-03-17T10:40:28.001Z,0.00
2018-03-17T10:42:53.938Z,0.10
2018-03-17T10:45:19.894Z,0.20
2018-03-17T10:47:45.882Z,0.40
2018-03-17T10:50:11.849Z,0.40
2018-03-17T10:52:37.769Z,0.40
2018-03-17T10:55:03.686Z,0.10
2018-03-17T10:57:30.358Z,0.20
2018-03-17T10:59:56.294Z,0.20
2018-03-17T11:02:22.259Z,0.40
2018-03-17T11:04:48.207Z,0.40
2018-03-17T11:07:14.120Z,0.50
2018-03-17T11:09:40.038Z,0.60
2018-03-17T11:12:05.950Z,0.60
2018-03-17T11:14:32.663Z,0.70
2018-03-17T11:16:58.609Z,0.70
2018-03-17T11:19:24.556Z,0.70
2018-03-17T11:21:50.533Z,0.80
2018-03-17T11:24:16.440Z,1.10
2018-03-17T11:26:43.081Z,2.20
2018-03-17T11:29:09.813Z,2.40
2018-03-17T11:31:35.741Z,2.40
2018-03-17T11:34:01.705Z,3.10
2018-03-17T11:36:28.357Z,3.50
2018-03-17T11:38:55.082Z,3.40
2018-03-17T11:41:21.010Z,3.40
2018-03-17T11:43:46.932Z,3.50
2018-03-17T11:46:12.853Z,3.60
2018-03-17T11:48:38.772Z,3.50
2018-03-17T11:51:04.683Z,3.90
2018-03-17T11:53:30.603Z,3.90
2018-03-17T11:55:56.647Z,4.80
2018-03-17T11:58:23.971Z,5.10
2018-03-17T12:00:50.474Z,5.00
2018-03-17T12:03:16.918Z,5.60
2018-03-17T12:05:42.880Z,5.90
2018-03-17T12:08:08.809Z,5.70
2018-03-17T12:10:34.762Z,5.70
2018-03-17T12:13:00.660Z,6.30
2018-03-17T12:15:26.610Z,6.80
2018-03-17T12:17:52.570Z,6.90
2018-03-17T12:20:18.495Z,7.20
2018-03-17T12:22:44.398Z,6.60
2018-03-17T12:25:11.256Z,5.70
2018-03-17T12:27:37.163Z,5.80
2018-03-17T12:30:03.102Z,6.60
2018-03-17T12:32:29.769Z,8.10
2018-03-17T12:34:56.458Z,8.40
2018-03-17T12:37:22.430Z,8.40
2018-03-17T12:39:48.360Z,8.50
2018-03-17T12:42:14.321Z,8.70
2018-03-17T12:44:40.990Z,9.80
2018-03-17T12:47:06.902Z,9.80
2018-03-17T12:49:33.559Z,10.40
2018-03-17T12:52:00.270Z,11.50
2018-03-17T12:54:26.344Z,11.40
2018-03-17T12:56:52.982Z,11.00
2018-03-17T12:59:18.912Z,11.00
2018-03-17T13:01:44.867Z,9.90
2018-03-17T13:04:11.525Z,10.00
2018-03-17T13:06:37.498Z,9.90
2018-03-17T13:09:03.438Z,10.70
2018-03-17T13:11:29.348Z,11.00
2018-03-17T13:13:55.310Z,10.60
2018-03-17T13:16:21.226Z,10.80
2018-03-17T13:18:47.170Z,10.50
2018-03-17T13:21:13.154Z,9.80
2018-03-17T13:23:39.825Z,8.30
2018-03-17T13:26:05.774Z,8.20
2018-03-17T13:28:31.711Z,8.40
2018-03-17T13:30:57.650Z,8.10
2018-03-17T13:33:23.578Z,8.40
2018-03-17T13:36:05.454Z,7.90
2018-03-17T13:38:32.186Z,8.30
2018-03-17T13:40:58.083Z,8.30
2018-03-17T13:43:24.045Z,8.00
2018-03-17T13:45:49.963Z,6.80
2018-03-17T13:48:15.898Z,6.10
2018-03-17T13:50:41.793Z,5.20
2018-03-17T13:53:07.719Z,4.90
2018-03-17T13:55:33.651Z,4.80
2018-03-17T13:58:00.455Z,4.90
2018-03-17T14:00:26.490Z,5.50
2018-03-17T14:02:52.406Z,6.30
2018-03-17T14:05:18.337Z,6.50
2018-03-17T14:07:44.278Z,5.50
2018-03-17T14:10:10.199Z,4.80
2018-03-17T14:12:36.108Z,4.40
2018-03-17T14:15:02.854Z,6.00
2018-03-17T14:17:29.545Z,7.20
2018-03-17T14:19:55.480Z,7.20
2018-03-17T14:22:21.444Z,8.70
2018-03-17T14:24:47.355Z,9.00
2018-03-17T14:27:13.267Z,9.20
2018-03-17T14:29:39.392Z,8.70
2018-03-17T14:32:06.070Z,6.40
2018-03-17T14:34:31.977Z,6.40
2018-03-17T14:36:58.694Z,4.60
2018-03-17T14:39:24.598Z,4.60
2018-03-17T14:41:50.498Z,3.90
2018-03-17T14:44:16.440Z,3.20
2018-03-17T14:46:42.381Z,2.80
2018-03-17T14:49:08.300Z,3.00
2018-03-17T14:51:34.991Z,2.80
2018-03-17T14:54:00.910Z,2.70
2018-03-17T14:56:27.202Z,2.70
2018-03-17T14:58:53.139Z,2.90
2018-03-17T15:01:19.045Z,3.40
2018-03-17T15:03:45.010Z,4.40
2018-03-17T15:06:10.930Z,5.50
2018-03-17T15:08:36.882Z,6.70
2018-03-17T15:11:02.802Z,7.10
2018-03-17T15:13:28.721Z,7.50
2018-03-17T15:15:54.652Z,8.40
2018-03-17T15:18:20.590Z,8.30
2018-03-17T15:20:46.484Z,8.60
2018-03-17T15:23:12.384Z,9.00
2018-03-17T15:25:39.148Z,8.90
2018-03-17T15:28:05.842Z,8.90
2018-03-17T15:30:31.788Z,8.90
2018-03-17T15:32:57.741Z,8.90
2018-03-17T15:35:23.655Z,8.70
2018-03-17T15:37:49.570Z,9.20
2018-03-17T15:40:15.499Z,9.30
2018-03-17T15:42:41.461Z,8.50
2018-03-17T15:45:07.381Z,8.30
2018-03-17T15:47:33.342Z,8.60
2018-03-17T15:49:59.242Z,8.40
2018-03-17T15:52:25.161Z,9.20
2018-03-17T15:54:51.076Z,9.00
2018-03-17T15:57:17.030Z,9.60
2018-03-17T15:59:42.978Z,9.30
2018-03-17T16:02:08.934Z,8.90
2018-03-17T16:04:34.857Z,8.60
2018-03-17T16:07:00.774Z,8.40
2018-03-17T16:09:26.780Z,8.10
2018-03-17T16:11:53.504Z,7.70
2018-03-17T16:14:20.153Z,7.00
2018-03-17T16:16:46.054Z,6.90
2018-03-17T16:19:12.007Z,4.80
2018-03-17T16:21:37.946Z,3.50
2018-03-17T16:24:03.865Z,2.80
2018-03-17T16:26:29.777Z,2.60
2018-03-17T16:28:55.754Z,1.80
2018-03-17T16:31:21.662Z,1.30
2018-03-17T16:33:47.570Z,0.90
2018-03-17T16:36:14.218Z,2.00
2018-03-17T16:38:40.870Z,2.60
2018-03-17T16:41:07.530Z,2.50
2018-03-17T16:43:33.434Z,2.50
2018-03-17T16:45:59.386Z,2.50
2018-03-17T16:48:26.058Z,1.80
2018-03-17T16:50:52.011Z,1.80
2018-03-17T16:53:17.924Z,1.50
2018-03-17T16:55:43.870Z,1.00
2018-03-17T16:58:09.800Z,0.40
2018-03-17T17:00:35.718Z,0.20
2018-03-17T17:03:01.665Z,-0.10
2018-03-17T17:05:27.607Z,-0.40
2018-03-17T17:07:53.630Z,-0.60
2018-03-17T17:10:19.543Z,-0.80
2018-03-17T17:12:46.207Z,-1.10
2018-03-17T17:15:12.186Z,-1.10
2018-03-17T17:17:38.349Z,-1.30
2018-03-17T17:20:04.317Z,-1.40
2018-03-17T17:22:30.292Z,-1.50
2018-03-17T17:24:56.160Z,-1.60
2018-03-17T17:27:22.822Z,-1.70
2018-03-17T17:29:49.662Z,-1.80
2018-03-17T17:32:15.584Z,-1.80
2018-03-17T17:34:41.508Z,-1.80
2018-03-17T17:37:07.771Z,-1.80
2018-03-17T17:39:34.449Z,-2.00
2018-03-17T17:42:00.406Z,-2.00
2018-03-17T17:44:26.374Z,-2.10
2018-03-17T17:46:52.294Z,-2.10
2018-03-17T17:49:18.237Z,-2.20
2018-03-17T17:51:44.162Z,-2.20
2018-03-17T17:54:10.109Z,-2.30
2018-03-17T17:56:36.019Z,-2.20
2018-03-17T17:59:01.944Z,-2.20
2018-03-17T18:01:27.873Z,-2.30
2018-03-17T18:04:00.710Z,-2.40
2018-03-17T18:06:26.679Z,-2.40
2018-03-17T18:08:53.341Z,-2.40
2018-03-17T18:11:20.010Z,-2.50
2018-03-17T18:13:45.916Z,-2.60
2018-03-17T18:16:12.602Z,-2.50
2018-03-17T18:18:38.674Z,-2.60
2018-03-17T18:21:04.630Z,-2.50
2018-03-17T18:23:30.594Z,-2.60
2018-03-17T18:25:56.517Z,-2.60
2018-03-17T18:28:23.173Z,-2.60
2018-03-17T18:30:49.869Z,-2.60
2018-03-17T18:33:15.778Z,-2.70
2018-03-17T18:35:41.771Z,-2.70
2018-03-17T18:38:08.469Z,-2.70
2018-03-17T18:40:34.383Z,-2.70
2018-03-17T18:43:00.351Z,-2.70
2018-03-17T18:45:26.316Z,-2.70
2018-03-17T18:47:52.236Z,-2.70
2018-03-17T18:50:18.146Z,-2.80
2018-03-17T18:52:44.135Z,-2.80
2018-03-17T18:55:10.818Z,-2.80
2018-03-17T18:57:36.746Z,-2.90
2018-03-17T19:00:02.682Z,-2.80
2018-03-17T19:02:28.629Z,-2.80
2018-03-17T19:04:55.274Z,-2.80
2018-03-17T19:07:21.204Z,-2.80
2018-03-17T19:09:47.109Z,-2.80
2018-03-17T19:12:13.035Z,-2.90
2018-03-17T19:14:39.005Z,-2.90
2018-03-17T19:17:04.929Z,-2.90
2018-03-17T19:19:31.570Z,-3.00
2018-03-17T19:21:58.237Z,-3.00
2018-03-17T19:24:24.173Z,-3.00
2018-03-17T19:26:50.104Z,-3.00
2018-03-17T19:29:16.742Z,-3.00
2018-03-17T19:31:43.402Z,-3.00
2018-03-17T19:34:10.052Z,-2.90
2018-03-17T19:36:35.954Z,-2.90
2018-03-17T19:39:01.902Z,-2.90
2018-03-17T19:41:27.811Z,-3.00
2018-03-17T19:43:53.722Z,-3.00
2018-03-17T19:46:19.653Z,-3.00
2018-03-17T19:48:45.586Z,-3.00
2018-03-17T19:51:11.512Z,-3.00
2018-03-17T19:53:37.442Z,-3.10
2018-03-17T19:56:03.379Z,-3.10
2018-03-17T19:58:29.412Z,-3.10
2018-03-17T20:00:55.365Z,-3.10
2018-03-17T20:03:21.303Z,-3.10
2018-03-17T20:05:47.208Z,-3.20
2018-03-17T20:08:13.127Z,-3.20
2018-03-17T20:10:39.773Z,-3.20
2018-03-17T20:13:06.458Z,-3.30
2018-03-17T20:15:32.376Z,-3.30
2018-03-17T20:17:58.295Z,-3.30
2018-03-17T20:20:24.976Z,-3.20
2018-03-17T20:22:50.906Z,-3.30
2018-03-17T20:25:16.818Z,-3.30
2018-03-17T20:27:43.553Z,-3.30
2018-03-17T20:30:09.463Z,-3.30
2018-03-17T20:32:35.367Z,-3.20
2018-03-17T20:35:01.327Z,-3.20
2018-03-17T20:37:27.270Z,-3.20
2018-03-17T20:39:53.202Z,-3.20
2018-03-17T20:42:19.154Z,-3.20
2018-03-17T20:44:45.088Z,-3.30
2018-03-17T20:47:11.011Z,-3.30
2018-03-17T20:49:36.914Z,-3.30
2018-03-17T20:52:02.826Z,-3.30
2018-03-17T20:54:28.754Z,-3.30
2018-03-17T20:56:55.412Z,-3.30
2018-03-17T20:59:21.342Z,-3.40
2018-03-17T21:01:47.258Z,-3.30
2018-03-17T21:04:13.947Z,-3.40
2018-03-17T21:06:39.882Z,-3.50
2018-03-17T21:09:05.810Z,-3.40
2018-03-17T21:11:31.697Z,-3.40
2018-03-17T21:13:57.612Z,-3.40
2018-03-17T21:16:23.546Z,-3.40
2018-03-17T21:18:49.474Z,-3.40
2018-03-17T21:21:15.378Z,-3.40
2018-03-17T21:23:41.340Z,-3.50
2018-03-17T21:26:07.991Z,-3.40
2018-03-17T21:28:33.903Z,-3.40
2018-03-17T21:30:59.861Z,-3.40
2018-03-17T21:33:25.826Z,-3.40
2018-03-17T21:35:51.746Z,-3.40
2018-03-17T21:38:17.670Z,-3.40
2018-03-17T21:40:43.611Z,-3.40
2018-03-17T21:43:09.549Z,-3.40
2018-03-17T21:45:35.437Z,-3.50
2018-03-17T21:48:01.349Z,-3.40
2018-03-17T21:50:27.274Z,-3.50
2018-03-17T21:52:53.931Z,-3.40
2018-03-17T21:55:20.625Z,-3.40
2018-03-17T21:57:46.538Z,-3.40
2018-03-17T22:00:12.441Z,-3.40
2018-03-17T22:02:38.361Z,-3.50
2018-03-17T22:05:05.036Z,-3.50
2018-03-17T22:07:31.714Z,-3.50
2018-03-17T22:09:57.626Z,-3.50
2018-03-17T22:12:24.272Z,-3.50
2018-03-17T22:14:50.969Z,-3.60
2018-03-17T22:17:17.158Z,-3.60
2018-03-17T22:19:43.803Z,-3.50
2018-03-17T22:22:09.742Z,-3.50
2018-03-17T22:24:36.421Z,-3.50
2018-03-17T22:27:02.351Z,-3.60
2018-03-17T22:29:28.284Z,-3.50
2018-03-17T22:31:54.249Z,-3.50
2018-03-17T22:34:20.850Z,-3.40
2018-03-17T22:36:47.554Z,-3.50
2018-03-17T22:39:13.455Z,-3.50
2018-03-17T22:41:39.373Z,-3.50
2018-03-17T22:44:06.030Z,-3.50
2018-03-17T22:46:32.706Z,-3.50
2018-03-17T22:48:58.625Z,-3.60
2018-03-17T22:51:24.525Z,-3.60
2018-03-17T22:53:50.438Z,-3.60
2018-03-17T22:56:16.366Z,-3.70
2018-03-17T22:58:42.286Z,-3.70
2018-03-17T23:01:08.194Z,-3.70
2018-03-17T23:03:34.117Z,-3.60
2018-03-17T23:06:00.818Z,-3.60
2018-03-17T23:08:27.185Z,-3.60
2018-03-17T23:10:53.089Z,-3.60
2018-03-17T23:15:51.893Z,-3.70
2018-03-17T23:18:17.822Z,-3.70
2018-03-17T23:20:43.753Z,-3.70
2018-03-17T23:23:09.871Z,-3.70
2018-03-17T23:25:36.517Z,-3.80
2018-03-17T23:28:02.458Z,-3.80
2018-03-17T23:30:29.126Z,-3.80
2018-03-17T23:32:55.054Z,-3.80
2018-03-17T23:35:21.005Z,-3.80
2018-03-17T23:37:46.978Z,-3.80
2018-03-17T23:40:13.029Z,-3.80
2018-03-17T23:42:38.937Z,-3.80
2018-03-17T23:45:04.893Z,-3.80
2018-03-17T23:47:30.954Z,-3.80
2018-03-17T23:49:57.696Z,-3.90
2018-03-17T23:52:23.619Z,-3.90
2018-03-17T23:54:49.556Z,-3.90
2018-03-17T23:57:15.753Z,-4.00
2018-03-17T23:59:41.757Z,-4.00
